createdAt,value
2019-06-15T00:00:55.098Z,4.43
2019-06-15T00:03:21.963Z,4.57
2019-06-15T00:05:48.727Z,4.30
2019-06-15T00:08:15.436Z,5.03
2019-06-15T00:10:42.114Z,4.60
2019-06-15T00:13:08.818Z,4.63
2019-06-15T00:15:35.595Z,5.87
2019-06-15T00:18:02.387Z,4.83
2019-06-15T00:20:29.129Z,4.53
2019-06-15T00:22:55.787Z,5.13
2019-06-15T00:25:22.630Z,6.60
2019-06-15T00:27:49.336Z,6.20
2019-06-15T00:30:16.126Z,5.60
2019-06-15T00:32:42.829Z,5.23
2019-06-15T00:35:09.844Z,5.70
2019-06-15T00:37:36.620Z,5.10
2019-06-15T00:40:04.630Z,5.30
2019-06-15T00:42:31.405Z,4.77
2019-06-15T00:44:58.110Z,3.70
2019-06-15T00:47:24.830Z,5.03
2019-06-15T00:49:51.515Z,4.50
2019-06-15T00:52:18.415Z,5.53
2019-06-15T00:54:50.297Z,5.63
2019-06-15T00:57:13.819Z,5.27
2019-06-15T00:59:40.598Z,5.90
2019-06-15T01:02:07.326Z,7.47
2019-06-15T01:04:34.110Z,6.23
2019-06-15T01:07:00.898Z,6.17
2019-06-15T01:09:27.594Z,9.10
2019-06-15T01:11:54.420Z,9.40
2019-06-15T01:14:21.195Z,5.83
2019-06-15T01:16:48.003Z,7.70
2019-06-15T01:19:14.785Z,8.50
2019-06-15T01:21:41.563Z,5.77
2019-06-15T01:24:08.323Z,6.90
2019-06-15T01:26:35.104Z,6.63
2019-06-15T01:29:01.784Z,26.00
2019-06-15T01:31:28.487Z,20.03
2019-06-15T01:33:55.278Z,9.70
2019-06-15T01:36:22.070Z,9.63
2019-06-15T01:38:48.766Z,8.30
2019-06-15T01:41:15.551Z,8.40
2019-06-15T01:43:42.249Z,6.70
2019-06-15T01:46:09.055Z,9.50
2019-06-15T01:48:35.852Z,6.63
2019-06-15T01:51:02.799Z,7.07
2019-06-15T01:53:29.585Z,6.63
2019-06-15T01:55:57.422Z,7.20
2019-06-15T01:58:24.114Z,6.57
2019-06-15T02:00:50.827Z,8.23
2019-06-15T02:03:18.610Z,6.50
2019-06-15T02:05:45.293Z,6.30
2019-06-15T02:08:12.103Z,6.87
2019-06-15T02:10:38.804Z,7.27
2019-06-15T02:13:05.603Z,6.37
2019-06-15T02:15:32.394Z,7.20
2019-06-15T02:17:59.184Z,8.43
2019-06-15T02:20:26.115Z,7.77
2019-06-15T02:22:52.797Z,13.90
2019-06-15T02:25:34.886Z,12.50
2019-06-15T02:27:52.298Z,11.77
2019-06-15T02:30:26.094Z,10.47
2019-06-15T02:32:53.157Z,10.13
2019-06-15T02:35:19.963Z,9.13
2019-06-15T02:37:46.738Z,10.00
2019-06-15T02:40:13.633Z,11.80
2019-06-15T02:42:40.329Z,10.60
2019-06-15T02:45:07.429Z,6.80
2019-06-15T02:47:34.240Z,7.27
2019-06-15T02:50:01.085Z,7.30
2019-06-15T02:52:28.134Z,7.30
2019-06-15T02:54:54.850Z,9.33
2019-06-15T02:57:21.527Z,20.17
2019-06-15T02:59:48.251Z,9.83
2019-06-15T03:02:15.057Z,14.03
2019-06-15T03:04:41.746Z,15.00
2019-06-15T03:07:08.654Z,8.07
2019-06-15T03:09:35.434Z,6.73
2019-06-15T03:12:02.320Z,6.97
2019-06-15T03:14:29.001Z,8.07
2019-06-15T03:17:29.367Z,5.33
2019-06-15T03:20:19.045Z,5.67
2019-06-15T03:22:45.725Z,5.80
2019-06-15T03:25:12.811Z,5.53
2019-06-15T03:27:39.521Z,5.40
2019-06-15T03:30:06.820Z,5.60
2019-06-15T03:32:33.626Z,5.93
2019-06-15T03:35:00.320Z,5.77
2019-06-15T03:37:27.001Z,6.20
2019-06-15T03:39:53.708Z,9.67
2019-06-15T03:42:20.396Z,10.60
2019-06-15T03:44:47.186Z,8.00
2019-06-15T03:47:13.979Z,6.23
2019-06-15T03:49:41.778Z,10.30
2019-06-15T03:52:08.489Z,9.30
2019-06-15T03:54:35.293Z,6.60
2019-06-15T03:57:01.966Z,7.90
2019-06-15T03:59:28.743Z,9.10
2019-06-15T04:01:55.483Z,13.83
2019-06-15T04:04:22.162Z,8.03
2019-06-15T04:06:48.842Z,8.80
2019-06-15T04:09:15.536Z,9.57
2019-06-15T04:11:42.199Z,8.53
2019-06-15T04:14:09.047Z,8.90
2019-06-15T04:16:35.839Z,10.80
2019-06-15T04:19:02.808Z,38.40
2019-06-15T04:21:29.575Z,22.73
2019-06-15T04:23:56.447Z,16.10
2019-06-15T04:26:35.290Z,10.40
2019-06-15T04:28:51.784Z,16.47
2019-06-15T04:31:18.471Z,11.13
2019-06-15T04:33:45.186Z,11.00
2019-06-15T04:36:11.960Z,14.07
2019-06-15T04:38:38.652Z,17.10
2019-06-15T04:41:05.502Z,12.53
2019-06-15T04:43:33.330Z,11.47
2019-06-15T04:46:00.040Z,15.13
2019-06-15T04:48:44.908Z,17.70
2019-06-15T04:51:11.609Z,14.00
2019-06-15T04:53:38.276Z,14.97
2019-06-15T04:56:05.179Z,12.83
2019-06-15T04:58:31.966Z,14.87
2019-06-15T05:00:58.747Z,14.67
2019-06-15T05:03:25.532Z,13.47
2019-06-15T05:05:52.282Z,14.67
2019-06-15T05:08:18.950Z,19.13
2019-06-15T05:10:45.835Z,29.83
2019-06-15T05:13:12.538Z,29.50
2019-06-15T05:15:39.337Z,19.20
2019-06-15T05:18:05.998Z,19.80
2019-06-15T05:20:32.730Z,20.27
2019-06-15T05:22:59.495Z,23.20
2019-06-15T05:25:26.329Z,19.67
2019-06-15T05:27:53.155Z,18.10
2019-06-15T05:30:20.961Z,18.37
2019-06-15T05:32:47.841Z,18.30
2019-06-15T05:35:14.927Z,17.87
2019-06-15T05:37:41.714Z,17.73
2019-06-15T05:40:09.654Z,18.07
2019-06-15T05:42:37.453Z,17.33
2019-06-15T05:45:05.080Z,17.20
2019-06-15T05:47:31.863Z,17.87
2019-06-15T05:49:58.568Z,17.80
2019-06-15T05:52:25.374Z,21.80
2019-06-15T05:54:52.057Z,16.73
2019-06-15T05:57:21.885Z,19.97
2019-06-15T05:59:47.416Z,17.17
2019-06-15T06:02:14.104Z,16.57
2019-06-15T06:04:40.829Z,17.77
2019-06-15T06:07:07.795Z,17.87
2019-06-15T06:09:36.446Z,17.90
2019-06-15T06:12:03.146Z,17.80
2019-06-15T06:14:29.829Z,16.47
2019-06-15T06:16:56.499Z,17.93
2019-06-15T06:19:23.192Z,18.70
2019-06-15T06:21:51.780Z,17.53
2019-06-15T06:24:19.648Z,18.60
2019-06-15T06:26:46.426Z,17.53
2019-06-15T06:29:13.415Z,23.63
2019-06-15T06:31:40.184Z,19.50
2019-06-15T06:34:07.157Z,17.67
2019-06-15T06:36:33.838Z,16.07
2019-06-15T06:39:00.544Z,18.13
2019-06-15T06:41:27.417Z,15.97
2019-06-15T06:43:54.245Z,14.43
2019-06-15T06:46:21.085Z,17.80
2019-06-15T06:48:48.037Z,18.50
2019-06-15T06:51:14.726Z,17.50
2019-06-15T06:53:41.406Z,15.93
2019-06-15T06:56:08.222Z,19.03
2019-06-15T06:58:34.922Z,17.90
2019-06-15T07:01:01.837Z,19.80
2019-06-15T07:03:28.754Z,26.27
2019-06-15T07:05:55.444Z,19.90
2019-06-15T07:08:22.247Z,22.33
2019-06-15T07:10:48.938Z,19.40
2019-06-15T07:13:15.669Z,22.97
2019-06-15T07:15:42.758Z,18.20
2019-06-15T07:18:09.455Z,16.93
2019-06-15T07:20:36.238Z,23.00
2019-06-15T07:25:43.323Z,15.37
2019-06-15T07:28:10.481Z,13.60
2019-06-15T07:30:38.744Z,16.70
2019-06-15T07:33:05.560Z,18.63
2019-06-15T07:35:32.234Z,15.93
2019-06-15T07:37:59.087Z,16.13
2019-06-15T07:40:25.841Z,13.90
2019-06-15T07:42:52.688Z,14.17
2019-06-15T07:45:19.991Z,15.07
2019-06-15T07:47:46.735Z,13.27
2019-06-15T07:50:13.615Z,14.23
2019-06-15T07:52:40.304Z,15.37
2019-06-15T07:55:07.840Z,14.60
2019-06-15T07:57:36.127Z,16.87
2019-06-15T08:00:04.012Z,17.97
2019-06-15T08:02:31.085Z,14.90
2019-06-15T08:04:57.779Z,15.20
2019-06-15T08:07:24.474Z,16.23
2019-06-15T08:09:51.257Z,16.80
2019-06-15T08:12:18.243Z,15.00
2019-06-15T08:14:44.944Z,16.20
2019-06-15T08:17:11.686Z,14.73
2019-06-15T08:19:38.465Z,17.13
2019-06-15T08:22:05.241Z,15.30
2019-06-15T08:24:31.946Z,15.43
2019-06-15T08:26:58.640Z,15.27
2019-06-15T08:29:25.337Z,16.33
2019-06-15T08:31:52.147Z,16.43
2019-06-15T08:34:18.940Z,15.03
2019-06-15T08:36:45.681Z,14.40
2019-06-15T08:39:12.361Z,14.90
2019-06-15T08:41:39.159Z,15.70
2019-06-15T08:44:06.472Z,13.83
2019-06-15T08:46:33.172Z,15.60
2019-06-15T08:49:00.418Z,17.60
2019-06-15T08:51:28.471Z,17.60
2019-06-15T08:53:56.706Z,14.40
2019-06-15T08:56:24.629Z,13.17
2019-06-15T08:58:55.725Z,13.47
2019-06-15T09:01:22.151Z,13.10
2019-06-15T09:03:50.150Z,12.40
2019-06-15T09:06:17.857Z,11.03
2019-06-15T09:08:45.390Z,12.00
2019-06-15T09:11:13.953Z,11.93
2019-06-15T09:13:41.841Z,10.67
2019-06-15T09:16:09.806Z,10.60
2019-06-15T09:18:36.774Z,14.00
2019-06-15T09:21:04.332Z,8.40
2019-06-15T09:23:31.866Z,9.20
2019-06-15T09:25:58.834Z,9.70
2019-06-15T09:28:25.529Z,9.53
2019-06-15T09:30:52.212Z,9.60
2019-06-15T09:33:19.019Z,11.57
2019-06-15T09:35:45.830Z,12.13
2019-06-15T09:38:12.638Z,43.83
2019-06-15T09:40:39.482Z,13.83
2019-06-15T09:43:06.271Z,27.13
2019-06-15T09:45:33.565Z,25.80
2019-06-15T09:48:00.253Z,9.90
2019-06-15T09:50:27.933Z,9.63
2019-06-15T09:52:54.765Z,7.83
2019-06-15T09:55:22.123Z,7.60
2019-06-15T09:57:48.806Z,9.87
2019-06-15T10:00:15.964Z,6.87
2019-06-15T10:02:42.736Z,7.33
2019-06-15T10:05:09.818Z,7.63
2019-06-15T10:07:36.695Z,8.00
2019-06-15T10:10:03.999Z,8.00
2019-06-15T10:12:30.804Z,6.50
2019-06-15T10:14:57.477Z,6.23
2019-06-15T10:17:24.279Z,6.80
2019-06-15T10:19:51.763Z,6.97
2019-06-15T10:22:18.674Z,7.37
2019-06-15T10:24:45.423Z,8.23
2019-06-15T10:27:12.245Z,19.03
2019-06-15T10:29:42.296Z,8.83
2019-06-15T10:32:07.923Z,26.40
2019-06-15T10:34:34.708Z,19.90
2019-06-15T10:37:01.716Z,16.53
2019-06-15T10:39:28.499Z,17.77
2019-06-15T10:41:55.206Z,13.03
2019-06-15T10:44:21.904Z,13.70
2019-06-15T10:46:48.695Z,9.63
2019-06-15T10:49:15.506Z,6.50
2019-06-15T10:51:42.203Z,9.67
2019-06-15T10:54:08.983Z,8.53
2019-06-15T10:56:35.784Z,7.33
2019-06-15T10:59:02.512Z,7.07
2019-06-15T11:01:29.308Z,7.20
2019-06-15T11:03:56.195Z,7.40
2019-06-15T11:06:23.015Z,11.30
2019-06-15T11:08:49.701Z,7.90
2019-06-15T11:11:21.637Z,8.40
2019-06-15T11:13:48.254Z,10.43
2019-06-15T11:16:15.154Z,12.40
2019-06-15T11:18:42.986Z,37.70
2019-06-15T11:21:10.196Z,28.10
2019-06-15T11:23:37.160Z,19.50
2019-06-15T11:26:04.056Z,9.90
2019-06-15T11:28:30.968Z,7.93
2019-06-15T11:30:57.909Z,8.67
2019-06-15T11:33:24.626Z,8.70
2019-06-15T11:35:51.325Z,7.47
2019-06-15T11:38:18.490Z,11.10
2019-06-15T11:40:45.708Z,9.97
2019-06-15T11:43:12.485Z,9.60
2019-06-15T11:45:39.296Z,8.37
2019-06-15T11:48:06.119Z,8.53
2019-06-15T11:50:32.924Z,8.10
2019-06-15T11:53:00.329Z,8.70
2019-06-15T11:55:38.982Z,8.20
2019-06-15T11:57:55.751Z,11.27
2019-06-15T12:00:31.243Z,8.80
2019-06-15T12:02:55.027Z,9.53
2019-06-15T12:05:21.816Z,10.00
2019-06-15T12:07:48.492Z,16.57
2019-06-15T12:10:15.268Z,11.03
2019-06-15T12:12:41.944Z,43.43
2019-06-15T12:15:08.699Z,32.57
2019-06-15T12:17:35.418Z,19.93
2019-06-15T12:20:02.238Z,18.10
2019-06-15T12:22:29.141Z,23.70
2019-06-15T12:24:55.854Z,10.60
2019-06-15T12:27:22.569Z,20.47
2019-06-15T12:29:49.439Z,15.27
2019-06-15T12:32:17.464Z,12.80
2019-06-15T12:34:44.285Z,11.10
2019-06-15T12:37:12.075Z,10.27
2019-06-15T12:39:41.848Z,9.00
2019-06-15T12:42:08.373Z,9.23
2019-06-15T12:44:35.075Z,9.23
2019-06-15T12:47:02.254Z,11.07
2019-06-15T12:49:28.916Z,11.10
2019-06-15T12:51:55.682Z,11.93
2019-06-15T12:54:22.585Z,13.87
2019-06-15T12:56:49.420Z,13.60
2019-06-15T12:59:16.119Z,12.10
2019-06-15T13:01:42.886Z,15.30
2019-06-15T13:04:10.675Z,14.57
2019-06-15T13:06:37.347Z,11.70
2019-06-15T13:09:05.615Z,11.33
2019-06-15T13:11:32.311Z,45.10
2019-06-15T13:13:59.088Z,11.27
2019-06-15T13:16:38.527Z,41.40
2019-06-15T13:18:54.546Z,58.27
2019-06-15T13:21:21.334Z,16.27
2019-06-15T13:23:48.107Z,15.40
2019-06-15T13:26:14.814Z,13.10
2019-06-15T13:28:41.619Z,17.03
2019-06-15T13:31:17.706Z,14.77
2019-06-15T13:33:37.128Z,14.63
2019-06-15T13:36:03.884Z,13.10
2019-06-15T13:38:30.569Z,14.50
2019-06-15T13:40:57.476Z,17.20
2019-06-15T13:43:25.246Z,14.13
2019-06-15T13:46:06.202Z,15.27
2019-06-15T13:48:33.023Z,19.07
2019-06-15T13:50:59.710Z,16.20
2019-06-15T13:53:26.415Z,15.20
2019-06-15T13:55:53.246Z,15.97
2019-06-15T13:58:19.945Z,21.30
2019-06-15T14:00:46.792Z,16.50
2019-06-15T14:03:13.498Z,22.20
2019-06-15T14:05:40.441Z,9.47
2019-06-15T14:08:07.133Z,21.43
2019-06-15T14:10:50.763Z,24.33
2019-06-15T14:13:18.045Z,21.80
2019-06-15T14:15:44.695Z,24.27
2019-06-15T14:18:11.382Z,20.33
2019-06-15T14:20:38.808Z,24.93
2019-06-15T14:23:05.522Z,24.30
2019-06-15T14:25:32.235Z,25.17
2019-06-15T14:27:58.959Z,27.70
2019-06-15T14:30:25.722Z,24.90
2019-06-15T14:32:52.493Z,23.40
2019-06-15T14:35:19.195Z,21.57
2019-06-15T14:37:45.899Z,18.07
2019-06-15T14:40:15.571Z,12.17
2019-06-15T14:42:42.252Z,14.33
2019-06-15T14:45:10.164Z,10.80
2019-06-15T14:47:36.959Z,8.70
2019-06-15T14:50:04.318Z,9.50
2019-06-15T14:52:31.649Z,11.80
2019-06-15T14:54:58.333Z,12.33
2019-06-15T14:57:26.982Z,13.43
2019-06-15T15:00:01.404Z,23.07
2019-06-15T15:02:22.194Z,9.80
2019-06-15T15:04:48.854Z,13.37
2019-06-15T15:07:16.927Z,13.83
2019-06-15T15:09:46.024Z,12.10
2019-06-15T15:12:16.167Z,10.83
2019-06-15T15:14:43.105Z,8.97
2019-06-15T15:17:09.908Z,9.00
2019-06-15T15:19:36.587Z,6.70
2019-06-15T15:22:03.486Z,7.80
2019-06-15T15:24:30.214Z,4.40
2019-06-15T15:26:57.088Z,5.40
2019-06-15T15:29:23.963Z,3.83
2019-06-15T15:31:51.386Z,4.20
2019-06-15T15:34:18.076Z,5.00
2019-06-15T15:36:46.194Z,4.53
2019-06-15T15:39:13.180Z,4.27
2019-06-15T15:41:39.961Z,4.40
2019-06-15T15:44:06.646Z,4.30
2019-06-15T15:46:33.440Z,3.20
2019-06-15T15:49:00.298Z,3.97
2019-06-15T15:51:27.070Z,3.60
2019-06-15T15:53:53.754Z,2.60
2019-06-15T15:56:20.537Z,3.00
2019-06-15T15:58:47.453Z,2.30
2019-06-15T16:01:16.904Z,2.80
2019-06-15T16:03:42.933Z,2.90
2019-06-15T16:06:09.746Z,3.83
2019-06-15T16:08:36.432Z,2.80
2019-06-15T16:11:03.377Z,3.17
2019-06-15T16:13:30.244Z,3.67
2019-06-15T16:15:57.013Z,3.47
2019-06-15T16:18:23.824Z,2.90
2019-06-15T16:20:50.623Z,4.23
2019-06-15T16:23:17.285Z,3.13
2019-06-15T16:25:46.193Z,3.13
2019-06-15T16:28:12.638Z,3.00
2019-06-15T16:31:00.286Z,3.43
2019-06-15T16:33:08.213Z,3.07
2019-06-15T16:35:36.137Z,7.33
2019-06-15T16:38:02.989Z,3.10
2019-06-15T16:40:34.499Z,5.53
2019-06-15T16:43:02.184Z,3.37
2019-06-15T16:45:28.890Z,4.27
2019-06-15T16:47:55.570Z,1.97
2019-06-15T16:50:22.484Z,3.20
2019-06-15T16:52:49.282Z,3.13
2019-06-15T16:55:16.849Z,3.90
2019-06-15T16:57:46.485Z,3.40
2019-06-15T17:00:17.983Z,3.70
2019-06-15T17:02:46.896Z,3.73
2019-06-15T17:05:13.559Z,3.50
2019-06-15T17:07:40.340Z,47.10
2019-06-15T17:10:07.148Z,4.63
2019-06-15T17:12:33.820Z,3.83
2019-06-15T17:15:00.527Z,3.70
2019-06-15T17:17:27.222Z,4.70
2019-06-15T17:19:53.898Z,6.77
2019-06-15T17:22:21.595Z,4.90
2019-06-15T17:24:48.519Z,6.10
2019-06-15T17:27:17.098Z,5.90
2019-06-15T17:29:43.854Z,6.40
2019-06-15T17:32:10.658Z,5.90
2019-06-15T17:34:37.437Z,7.47
2019-06-15T17:37:06.687Z,7.83
2019-06-15T17:39:32.821Z,7.27
2019-06-15T17:41:59.511Z,6.90
2019-06-15T17:44:26.202Z,7.57
2019-06-15T17:46:52.962Z,7.07
2019-06-15T17:49:19.759Z,7.67
2019-06-15T17:51:46.615Z,6.23
2019-06-15T17:54:13.287Z,9.10
2019-06-15T17:56:40.078Z,6.63
2019-06-15T17:59:06.867Z,22.47
2019-06-15T18:01:36.286Z,5.57
2019-06-15T18:04:03.371Z,4.63
2019-06-15T18:06:30.063Z,4.20
2019-06-15T18:08:56.758Z,4.57
2019-06-15T18:11:26.010Z,3.40
2019-06-15T18:13:52.137Z,3.33
2019-06-15T18:16:18.802Z,3.97
2019-06-15T18:18:45.561Z,4.87
2019-06-15T18:21:12.374Z,5.80
2019-06-15T18:23:39.060Z,5.10
2019-06-15T18:26:07.159Z,4.43
2019-06-15T18:28:36.237Z,3.77
2019-06-15T18:31:02.734Z,5.40
2019-06-15T18:33:29.586Z,3.47
2019-06-15T18:35:56.331Z,5.80
2019-06-15T18:38:23.077Z,3.13
2019-06-15T18:40:49.781Z,4.30
2019-06-15T18:43:17.027Z,3.33
2019-06-15T18:45:43.998Z,3.70
2019-06-15T18:48:10.809Z,3.20
2019-06-15T18:50:38.599Z,8.83
2019-06-15T18:53:07.151Z,29.50
2019-06-15T18:55:36.333Z,2.17
2019-06-15T18:58:03.371Z,3.73
2019-06-15T19:00:30.250Z,4.00
2019-06-15T19:02:57.143Z,3.80
2019-06-15T19:05:26.076Z,1.80
2019-06-15T19:07:52.900Z,2.10
2019-06-15T19:10:34.111Z,2.20
2019-06-15T19:13:01.236Z,1.87
2019-06-15T19:15:28.137Z,2.23
2019-06-15T19:17:55.984Z,1.57
2019-06-15T19:20:23.010Z,2.47
2019-06-15T19:22:49.820Z,2.53
2019-06-15T19:25:17.729Z,2.47
2019-06-15T19:27:44.373Z,6.50
2019-06-15T19:30:11.377Z,9.73
2019-06-15T19:32:38.047Z,2.20
2019-06-15T19:35:04.930Z,3.33
2019-06-15T19:37:33.911Z,2.07
2019-06-15T19:40:00.419Z,2.47
2019-06-15T19:42:27.092Z,2.53
2019-06-15T19:44:56.105Z,1.73
2019-06-15T19:47:22.457Z,2.07
2019-06-15T19:49:49.126Z,2.50
2019-06-15T19:52:16.914Z,1.97
2019-06-15T19:54:43.862Z,3.40
2019-06-15T19:57:10.657Z,3.50
2019-06-15T19:59:37.446Z,3.47
2019-06-15T20:02:06.646Z,3.50
2019-06-15T20:04:32.820Z,3.80
2019-06-15T20:06:59.605Z,3.20
2019-06-15T20:09:26.314Z,3.70
2019-06-15T20:11:53.026Z,3.00
2019-06-15T20:14:19.800Z,1.77
2019-06-15T20:16:47.043Z,2.20
2019-06-15T20:19:13.918Z,1.87
2019-06-15T20:21:40.594Z,2.10
2019-06-15T20:24:07.391Z,3.93
2019-06-15T20:26:36.521Z,1.37
2019-06-15T20:29:02.893Z,1.33
2019-06-15T20:31:29.575Z,1.20
2019-06-15T20:33:57.035Z,1.67
2019-06-15T20:36:23.719Z,1.97
2019-06-15T20:38:50.533Z,1.20
2019-06-15T20:41:17.213Z,1.27
2019-06-15T20:43:46.029Z,2.17
2019-06-15T20:46:12.606Z,1.53
2019-06-15T20:48:39.449Z,2.27
2019-06-15T20:51:10.078Z,2.10
2019-06-15T20:53:36.755Z,1.83
2019-06-15T20:56:03.565Z,1.87
2019-06-15T20:58:30.253Z,2.10
2019-06-15T21:00:56.919Z,3.00
2019-06-15T21:03:23.745Z,2.70
2019-06-15T21:05:50.400Z,4.10
2019-06-15T21:08:17.155Z,1.90
2019-06-15T21:10:46.146Z,2.37
2019-06-15T21:13:12.500Z,2.97
2019-06-15T21:15:43.006Z,2.33
2019-06-15T21:18:09.852Z,2.63
2019-06-15T21:20:36.587Z,2.50
2019-06-15T21:23:03.408Z,2.43
2019-06-15T21:25:30.112Z,2.83
2019-06-15T21:27:56.949Z,2.97
2019-06-15T21:30:23.780Z,2.27
2019-06-15T21:32:50.567Z,3.00
2019-06-15T21:35:17.257Z,3.23
2019-06-15T21:37:46.305Z,2.80
2019-06-15T21:40:15.960Z,3.50
2019-06-15T21:42:42.420Z,2.50
2019-06-15T21:45:09.205Z,3.03
2019-06-15T21:47:37.093Z,4.10
2019-06-15T21:50:04.939Z,2.90
2019-06-15T21:52:31.622Z,3.80
2019-06-15T21:54:59.417Z,3.30
2019-06-15T21:57:26.905Z,3.50
2019-06-15T21:59:53.759Z,3.30
2019-06-15T22:02:20.553Z,3.43
2019-06-15T22:04:47.330Z,3.40
2019-06-15T22:07:16.764Z,3.50
2019-06-15T22:09:42.606Z,2.93
2019-06-15T22:12:09.386Z,3.77
2019-06-15T22:14:36.176Z,2.97
2019-06-15T22:17:02.973Z,4.57
2019-06-15T22:19:29.638Z,3.27
2019-06-15T22:21:56.557Z,3.70
2019-06-15T22:24:23.217Z,4.57
2019-06-15T22:26:49.984Z,3.97
2019-06-15T22:29:16.975Z,3.40
2019-06-15T22:31:43.675Z,4.83
2019-06-15T22:34:10.447Z,2.80
2019-06-15T22:36:37.245Z,3.33
2019-06-15T22:39:06.411Z,4.27
2019-06-15T22:41:36.041Z,3.90
2019-06-15T22:44:03.244Z,3.90
2019-06-15T22:46:29.944Z,3.87
2019-06-15T22:48:56.706Z,4.20
2019-06-15T22:51:23.377Z,4.70
2019-06-15T22:53:50.204Z,5.50
2019-06-15T22:56:17.364Z,3.50
2019-06-15T22:58:46.155Z,3.50
2019-06-15T23:01:12.782Z,4.90
2019-06-15T23:03:39.557Z,4.30
2019-06-15T23:06:07.008Z,5.37
2019-06-15T23:08:36.167Z,3.50
2019-06-15T23:11:02.541Z,4.50
2019-06-15T23:13:29.210Z,5.30
2019-06-15T23:15:56.513Z,4.27
2019-06-15T23:18:23.289Z,3.70
2019-06-15T23:20:50.641Z,4.00
2019-06-15T23:23:17.313Z,3.70
2019-06-15T23:25:44.175Z,3.30
2019-06-15T23:28:10.948Z,2.70
2019-06-15T23:30:37.845Z,2.77
2019-06-15T23:33:06.539Z,2.93
2019-06-15T23:35:39.133Z,2.80
2019-06-15T23:38:06.557Z,3.30
2019-06-15T23:40:35.906Z,5.57
2019-06-15T23:43:02.092Z,2.60
2019-06-15T23:45:28.769Z,2.50
2019-06-15T23:47:57.549Z,3.73
2019-06-15T23:50:26.431Z,2.90
2019-06-15T23:52:53.112Z,2.97
2019-06-15T23:55:20.005Z,2.63
2019-06-15T23:57:47.832Z,2.93
